createdAt,value
2022-11-24T00:00:00.186Z,6.5
2022-11-24T00:05:00.237Z,7.4
2022-11-24T00:10:00.208Z,7.1
2022-11-24T00:15:00.220Z,7.9
2022-11-24T00:20:00.166Z,8.7
2022-11-24T00:25:00.369Z,7.3
2022-11-24T00:30:00.191Z,8.1
2022-11-24T00:35:00.224Z,6.9
2022-11-24T00:40:00.217Z,6.2
2022-11-24T00:45:00.771Z,7.5
2022-11-24T00:50:00.215Z,9.5
2022-11-24T00:55:00.222Z,6.4
2022-11-24T01:00:00.178Z,6.2
2022-11-24T01:05:00.196Z,8.9
2022-11-24T01:10:00.233Z,6.8
2022-11-24T01:15:00.187Z,6.0
2022-11-24T01:20:00.223Z,9.2
2022-11-24T01:25:00.189Z,7.3
2022-11-24T01:30:00.198Z,9.0
2022-11-24T01:35:00.208Z,7.0
2022-11-24T01:40:00.185Z,8.9
2022-11-24T01:45:00.209Z,6.6
2022-11-24T01:50:00.190Z,5.8
2022-11-24T01:55:00.217Z,9.7
2022-11-24T02:00:00.159Z,7.0
2022-11-24T02:05:00.201Z,8.4
2022-11-24T02:10:00.200Z,6.7
2022-11-24T02:15:00.229Z,9.3
2022-11-24T02:20:00.168Z,7.9
2022-11-24T02:25:00.223Z,7.9
2022-11-24T02:30:00.178Z,5.5
2022-11-24T02:35:00.222Z,8.8
2022-11-24T02:40:00.235Z,5.3
2022-11-24T02:45:00.230Z,9.8
2022-11-24T02:50:00.183Z,6.2
2022-11-24T02:55:00.241Z,5.0
2022-11-24T03:00:00.232Z,5.5
2022-11-24T03:05:00.217Z,7.0
2022-11-24T03:10:00.210Z,6.2
2022-11-24T03:15:00.223Z,7.0
2022-11-24T03:20:04.648Z,7.1
2022-11-24T03:25:00.195Z,4.2
2022-11-24T03:30:00.259Z,5.6
2022-11-24T03:35:00.211Z,7.0
2022-11-24T03:40:00.215Z,8.1
2022-11-24T03:45:16.762Z,5.8
2022-11-24T03:50:00.210Z,7.0
2022-11-24T03:55:00.189Z,6.6
2022-11-24T04:00:00.207Z,4.7
2022-11-24T04:05:00.225Z,9.6
2022-11-24T04:10:00.188Z,7.2
2022-11-24T04:15:00.235Z,7.8
2022-11-24T04:20:00.216Z,5.6
2022-11-24T04:25:00.216Z,8.1
2022-11-24T04:30:00.214Z,7.9
2022-11-24T04:35:00.311Z,10.8
2022-11-24T04:40:00.208Z,8.0
2022-11-24T04:45:00.220Z,5.1
2022-11-24T04:50:00.204Z,10.1
2022-11-24T04:55:00.231Z,11.3
2022-11-24T05:00:00.220Z,9.5
2022-11-24T05:05:00.193Z,8.5
2022-11-24T05:10:00.200Z,8.2
2022-11-24T05:15:00.172Z,7.3
2022-11-24T05:20:00.187Z,9.1
2022-11-24T05:25:00.198Z,6.8
2022-11-24T05:30:00.197Z,8.4
2022-11-24T05:35:00.192Z,9.4
2022-11-24T05:40:00.204Z,6.7
2022-11-24T05:45:00.200Z,9.6
2022-11-24T05:50:00.197Z,14.2
2022-11-24T05:55:00.197Z,9.2
2022-11-24T06:00:00.566Z,9.3
2022-11-24T06:05:00.151Z,7.3
2022-11-24T06:10:00.209Z,12.8
2022-11-24T06:15:00.171Z,11.6
2022-11-24T06:20:00.214Z,14.4
2022-11-24T06:25:00.190Z,10.4
2022-11-24T06:30:00.208Z,5.6
2022-11-24T06:35:00.169Z,12.4
2022-11-24T06:40:00.198Z,10.1
2022-11-24T06:45:00.460Z,11.0
2022-11-24T06:50:00.163Z,8.0
2022-11-24T06:55:00.176Z,7.4
2022-11-24T07:00:00.165Z,13.1
2022-11-24T07:05:00.203Z,9.8
2022-11-24T07:10:00.463Z,11.2
2022-11-24T07:15:00.155Z,13.0
2022-11-24T07:20:00.197Z,14.3
2022-11-24T07:25:00.230Z,7.0
2022-11-24T07:30:00.170Z,9.8
2022-11-24T07:35:00.190Z,9.6
2022-11-24T07:40:00.213Z,17.2
2022-11-24T07:45:00.212Z,6.9
2022-11-24T07:50:00.216Z,13.0
2022-11-24T07:55:00.411Z,16.5
2022-11-24T08:00:00.249Z,12.3
2022-11-24T08:05:00.170Z,6.3
2022-11-24T08:10:00.201Z,10.5
2022-11-24T08:15:00.232Z,11.1
2022-11-24T08:20:00.376Z,12.4
2022-11-24T08:25:00.163Z,9.4
2022-11-24T08:30:00.235Z,7.5
2022-11-24T08:35:13.470Z,11.8
2022-11-24T08:40:00.159Z,9.9
2022-11-24T08:45:04.979Z,12.3
2022-11-24T08:50:00.181Z,9.9
2022-11-24T08:55:00.193Z,14.9
2022-11-24T09:00:00.187Z,15.1
2022-11-24T09:05:00.216Z,11.8
2022-11-24T09:10:00.171Z,14.6
2022-11-24T09:15:00.213Z,11.0
2022-11-24T09:20:00.159Z,9.9
2022-11-24T09:25:00.233Z,14.4
2022-11-24T09:30:00.200Z,12.7
2022-11-24T09:35:00.194Z,15.2
2022-11-24T09:40:00.176Z,10.3
2022-11-24T09:45:00.389Z,15.5
2022-11-24T09:50:00.192Z,12.5
2022-11-24T09:55:00.195Z,13.4
2022-11-24T10:00:00.246Z,12.5
2022-11-24T10:05:00.280Z,12.6
2022-11-24T10:10:00.232Z,15.0
2022-11-24T10:15:00.163Z,15.7
2022-11-24T10:20:00.348Z,15.3
2022-11-24T10:25:00.427Z,16.7
2022-11-24T10:30:00.162Z,13.0
2022-11-24T10:35:00.200Z,9.2
2022-11-24T10:40:00.643Z,12.1
2022-11-24T10:45:00.373Z,8.1
2022-11-24T10:50:00.197Z,10.5
2022-11-24T10:55:02.732Z,11.2
2022-11-24T11:00:00.732Z,14.5
2022-11-24T11:05:00.159Z,14.3
2022-11-24T11:10:00.262Z,13.6
2022-11-24T11:15:00.207Z,9.4
2022-11-24T11:20:02.223Z,12.1
2022-11-24T11:25:00.163Z,13.6
2022-11-24T11:35:00.144Z,15.1
2022-11-24T11:40:00.208Z,22.1
2022-11-24T11:45:00.188Z,13.1
2022-11-24T11:50:00.154Z,17.2
2022-11-24T11:55:00.211Z,13.3
2022-11-24T12:00:00.609Z,13.0
2022-11-24T12:05:00.197Z,16.9
2022-11-24T12:10:00.239Z,10.8
2022-11-24T12:15:01.088Z,13.0
2022-11-24T12:20:00.195Z,14.3
2022-11-24T12:25:00.305Z,13.8
2022-11-24T12:30:00.217Z,11.5
2022-11-24T12:35:00.176Z,16.4
2022-11-24T12:40:00.223Z,8.3
2022-11-24T12:45:00.224Z,11.5
2022-11-24T12:50:00.221Z,17.0
2022-11-24T12:55:00.174Z,12.3
2022-11-24T13:00:01.027Z,11.7
2022-11-24T13:05:00.153Z,13.6
2022-11-24T13:10:00.242Z,11.5
2022-11-24T13:15:00.195Z,13.9
2022-11-24T13:20:00.194Z,16.4
2022-11-24T13:25:00.191Z,11.0
2022-11-24T13:30:00.612Z,15.9
2022-11-24T13:35:00.152Z,13.5
2022-11-24T13:40:00.185Z,11.4
2022-11-24T13:45:00.222Z,14.6
2022-11-24T13:50:00.198Z,11.8
2022-11-24T13:55:00.157Z,10.4
2022-11-24T14:00:00.208Z,10.5
2022-11-24T14:05:00.145Z,16.7
2022-11-24T14:10:00.187Z,6.3
2022-11-24T14:15:00.446Z,13.9
2022-11-24T14:20:00.201Z,13.8
2022-11-24T14:25:00.166Z,10.9
2022-11-24T14:30:00.234Z,15.0
2022-11-24T14:35:00.231Z,14.2
2022-11-24T14:40:00.210Z,11.8
2022-11-24T14:45:00.222Z,18.5
2022-11-24T14:50:00.260Z,13.8
2022-11-24T14:55:12.253Z,13.5
2022-11-24T15:00:00.196Z,13.0
2022-11-24T15:05:03.331Z,13.9
2022-11-24T15:10:00.619Z,11.2
2022-11-24T15:15:00.204Z,11.2
2022-11-24T15:20:00.297Z,10.8
2022-11-24T15:25:00.195Z,11.1
2022-11-24T15:30:00.194Z,17.7
2022-11-24T15:35:00.150Z,12.7
2022-11-24T15:40:00.196Z,13.3
2022-11-24T15:45:00.284Z,11.2
2022-11-24T15:50:00.349Z,14.9
2022-11-24T15:55:00.163Z,13.0
2022-11-24T16:00:00.217Z,8.6
2022-11-24T16:05:00.201Z,13.8
2022-11-24T16:10:00.161Z,16.1
2022-11-24T16:15:00.203Z,10.8
2022-11-24T16:20:00.960Z,14.3
2022-11-24T16:25:00.203Z,11.5
2022-11-24T16:30:00.185Z,13.5
2022-11-24T16:35:00.185Z,12.4
2022-11-24T16:40:00.338Z,18.7
2022-11-24T16:45:00.405Z,14.3
2022-11-24T16:50:00.220Z,10.4
2022-11-24T16:55:00.201Z,12.4
2022-11-24T17:00:00.218Z,16.2
2022-11-24T17:05:00.198Z,13.5
2022-11-24T17:10:00.373Z,13.6
2022-11-24T17:15:30.522Z,18.0
2022-11-24T17:20:00.189Z,11.7
2022-11-24T17:25:00.154Z,12.0
2022-11-24T17:30:00.206Z,13.7
2022-11-24T17:35:00.200Z,20.2
2022-11-24T17:40:26.810Z,12.3
2022-11-24T17:45:00.199Z,13.6
2022-11-24T17:50:00.215Z,19.1
2022-11-24T17:55:00.495Z,14.5
2022-11-24T18:00:00.164Z,13.3
2022-11-24T18:05:00.203Z,13.1
2022-11-24T18:10:00.176Z,12.1
2022-11-24T18:15:00.371Z,8.4
2022-11-24T18:20:00.205Z,11.4
2022-11-24T18:25:00.214Z,8.9
2022-11-24T18:30:00.256Z,9.6
2022-11-24T18:35:00.395Z,7.3
2022-11-24T18:40:00.173Z,12.7
2022-11-24T18:45:00.187Z,9.5
2022-11-24T18:50:00.244Z,13.4
2022-11-24T18:55:00.177Z,16.4
2022-11-24T19:00:00.184Z,10.8
2022-11-24T19:05:00.202Z,11.7
2022-11-24T19:10:00.179Z,12.2
2022-11-24T19:15:00.796Z,10.3
2022-11-24T19:20:00.188Z,8.2
2022-11-24T19:25:00.172Z,10.0
2022-11-24T19:30:00.155Z,10.0
2022-11-24T19:35:00.231Z,10.2
2022-11-24T19:40:00.172Z,10.5
2022-11-24T19:45:00.242Z,13.7
2022-11-24T19:50:00.431Z,13.5
2022-11-24T19:55:00.176Z,18.7
2022-11-24T20:00:00.250Z,19.9
2022-11-24T20:05:00.186Z,10.2
2022-11-24T20:10:06.034Z,15.3
2022-11-24T20:15:00.344Z,17.2
2022-11-24T20:20:00.173Z,11.9
2022-11-24T20:25:00.527Z,12.0
2022-11-24T20:30:00.167Z,14.6
2022-11-24T20:35:00.216Z,11.7
2022-11-24T20:40:00.203Z,7.9
2022-11-24T20:45:00.182Z,11.5
2022-11-24T20:50:00.152Z,8.5
2022-11-24T20:55:00.195Z,12.5
2022-11-24T21:00:00.208Z,14.3
2022-11-24T21:05:00.184Z,14.8
2022-11-24T21:10:00.189Z,11.0
2022-11-24T21:15:00.167Z,13.3
2022-11-24T21:20:01.245Z,16.9
2022-11-24T21:25:00.214Z,22.2
2022-11-24T21:30:00.178Z,16.5
2022-11-24T21:35:00.166Z,15.9
2022-11-24T21:40:00.202Z,16.3
2022-11-24T21:45:00.185Z,13.3
2022-11-24T21:50:00.149Z,15.3
2022-11-24T21:55:00.208Z,16.2
2022-11-24T22:00:00.145Z,17.7
2022-11-24T22:05:00.188Z,16.6
2022-11-24T22:10:00.188Z,18.3
2022-11-24T22:15:00.158Z,21.0
2022-11-24T22:20:00.226Z,20.0
2022-11-24T22:25:00.171Z,19.8
2022-11-24T22:30:00.407Z,27.4
2022-11-24T22:35:00.196Z,20.3
2022-11-24T22:40:00.172Z,22.8
2022-11-24T22:45:00.347Z,23.5
2022-11-24T22:50:00.152Z,17.1
2022-11-24T22:55:00.202Z,17.8
2022-11-24T23:00:00.498Z,23.2
2022-11-24T23:05:00.172Z,21.1
2022-11-24T23:10:00.179Z,20.2
2022-11-24T23:15:00.166Z,21.9
2022-11-24T23:20:00.204Z,21.3
2022-11-24T23:25:00.158Z,20.5
2022-11-24T23:30:00.209Z,24.3
2022-11-24T23:35:00.153Z,19.4
2022-11-24T23:40:00.189Z,22.9
2022-11-24T23:45:00.196Z,21.0
2022-11-24T23:50:00.180Z,19.6
2022-11-24T23:55:00.214Z,30.6
